イルクーツク の空港の天気 - METARとTAF

イルクーツク国際空港 ( UIII / IKT ) - ロシア イルクーツク
飛行場実況気象(Metar)
観測時間04/22 00:30 IRKT (04/21 16:30 UTC)
風向・風速南南東 2m/s
視程10km以上
天気現象
全天の4割程度の雲 雲底高度 1520m
気温1℃
湿度93%
気圧1005hPa
METARUIII 211630Z 16002MPS 110V210 9999 SCT050CB 01/M00 Q1005 R30/290050 NOSIG RMK QFE710/0946
過去の天気等 Google飛行場航空写真 Wunderground天気予報

過去48時間のMETAR

飛行場予報(TAF)
発表時間: 4/21 22:00 IRKT (4/21 14:00 UTC)
予報対象時間: 21日23時 IRKT ~ 22日23時 IRKT
風向・風速西北西 8m/s
視程10km以上
全天の8割程度の積乱雲 雲底高度 210m
21日23時 IRKT ~ 22日14時 IRKT に一時的に
風向・風速北西 10m/s 瞬間風速 15m/s
視程900m
天気現象強いしゅう雪雨
全天を覆う雲 鉛直視程 90m
TAF UIII 211400Z 2115/2215 30008MPS 9999 BKN007CB
TEMPO 2115/2206 32010G15MPS 0900 +SHSNRA VV003